sensor_id;sensor_type;location;lat;lon;timestamp;temperature;humidity
9971;DHT22;5026;51.494;11.974;2023-10-31T00:01:10;12.30;99.90
9971;DHT22;5026;51.494;11.974;2023-10-31T00:03:39;12.20;99.90
9971;DHT22;5026;51.494;11.974;2023-10-31T00:06:08;12.30;99.90
9971;DHT22;5026;51.494;11.974;2023-10-31T00:08:35;12.30;99.90
9971;DHT22;5026;51.494;11.974;2023-10-31T00:11:02;12.40;99.90
9971;DHT22;5026;51.494;11.974;2023-10-31T00:13:29;12.40;99.90
9971;DHT22;5026;51.494;11.974;2023-10-31T00:15:56;12.40;99.90
9971;DHT22;5026;51.494;11.974;2023-10-31T00:18:23;12.40;99.90
9971;DHT22;5026;51.494;11.974;2023-10-31T00:20:51;12.30;99.90
9971;DHT22;5026;51.494;11.974;2023-10-31T00:23:18;12.40;99.90
9971;DHT22;5026;51.494;11.974;2023-10-31T00:25:45;12.40;99.90
9971;DHT22;5026;51.494;11.974;2023-10-31T00:28:12;12.40;99.90
9971;DHT22;5026;51.494;11.974;2023-10-31T00:30:39;12.30;99.90
9971;DHT22;5026;51.494;11.974;2023-10-31T00:33:06;12.30;99.90
9971;DHT22;5026;51.494;11.974;2023-10-31T00:35:33;12.30;99.90
9971;DHT22;5026;51.494;11.974;2023-10-31T00:38:01;12.30;99.90
9971;DHT22;5026;51.494;11.974;2023-10-31T00:40:28;12.30;99.90
9971;DHT22;5026;51.494;11.974;2023-10-31T00:42:55;12.30;99.90
9971;DHT22;5026;51.494;11.974;2023-10-31T00:45:23;12.30;99.90
9971;DHT22;5026;51.494;11.974;2023-10-31T00:47:50;12.20;99.90
9971;DHT22;5026;51.494;11.974;2023-10-31T00:50:17;12.20;99.90
9971;DHT22;5026;51.494;11.974;2023-10-31T00:52:44;12.20;99.90
9971;DHT22;5026;51.494;11.974;2023-10-31T00:55:13;12.20;99.90
9971;DHT22;5026;51.494;11.974;2023-10-31T00:57:40;12.20;99.90
9971;DHT22;5026;51.494;11.974;2023-10-31T01:00:07;12.20;99.90
9971;DHT22;5026;51.494;11.974;2023-10-31T01:02:35;12.20;99.90
9971;DHT22;5026;51.494;11.974;2023-10-31T01:05:02;12.20;99.90
9971;DHT22;5026;51.494;11.974;2023-10-31T01:07:29;12.20;99.90
9971;DHT22;5026;51.494;11.974;2023-10-31T01:09:56;12.20;99.90
9971;DHT22;5026;51.494;11.974;2023-10-31T01:12:25;12.20;99.90
9971;DHT22;5026;51.494;11.974;2023-10-31T01:14:53;12.20;99.90
9971;DHT22;5026;51.494;11.974;2023-10-31T01:17:21;12.20;99.90
9971;DHT22;5026;51.494;11.974;2023-10-31T01:19:48;12.30;99.90
9971;DHT22;5026;51.494;11.974;2023-10-31T01:22:15;12.30;99.90
9971;DHT22;5026;51.494;11.974;2023-10-31T01:24:42;12.30;99.90
9971;DHT22;5026;51.494;11.974;2023-10-31T01:27:09;12.30;99.90
9971;DHT22;5026;51.494;11.974;2023-10-31T01:29:37;12.30;99.90
9971;DHT22;5026;51.494;11.974;2023-10-31T01:32:05;12.30;99.90
9971;DHT22;5026;51.494;11.974;2023-10-31T01:34:32;12.30;99.90
9971;DHT22;5026;51.494;11.974;2023-10-31T01:36:59;12.30;99.90
9971;DHT22;5026;51.494;11.974;2023-10-31T01:39:26;12.30;99.90
9971;DHT22;5026;51.494;11.974;2023-10-31T01:41:53;12.30;99.90
9971;DHT22;5026;51.494;11.974;2023-10-31T01:44:20;12.30;99.90
9971;DHT22;5026;51.494;11.974;2023-10-31T01:46:48;12.40;99.90
9971;DHT22;5026;51.494;11.974;2023-10-31T01:49:16;12.40;99.90
9971;DHT22;5026;51.494;11.974;2023-10-31T01:51:44;12.40;99.90
9971;DHT22;5026;51.494;11.974;2023-10-31T01:54:12;12.30;99.90
9971;DHT22;5026;51.494;11.974;2023-10-31T01:56:40;12.30;99.90
9971;DHT22;5026;51.494;11.974;2023-10-31T01:59:07;12.30;99.90
9971;DHT22;5026;51.494;11.974;2023-10-31T02:01:37;12.40;99.90
9971;DHT22;5026;51.494;11.974;2023-10-31T02:04:06;12.30;99.90
9971;DHT22;5026;51.494;11.974;2023-10-31T02:06:33;12.30;99.90
9971;DHT22;5026;51.494;11.974;2023-10-31T02:09:00;12.30;99.90
9971;DHT22;5026;51.494;11.974;2023-10-31T02:11:27;12.30;99.90
9971;DHT22;5026;51.494;11.974;2023-10-31T02:13:54;12.30;99.90
9971;DHT22;5026;51.494;11.974;2023-10-31T02:16:21;12.30;99.90
9971;DHT22;5026;51.494;11.974;2023-10-31T02:18:48;12.40;99.90
9971;DHT22;5026;51.494;11.974;2023-10-31T02:21:17;12.40;99.90
9971;DHT22;5026;51.494;11.974;2023-10-31T02:23:57;12.40;99.90
9971;DHT22;5026;51.494;11.974;2023-10-31T02:26:24;12.40;99.90
9971;DHT22;5026;51.494;11.974;2023-10-31T02:28:51;12.30;99.90
9971;DHT22;5026;51.494;11.974;2023-10-31T02:31:17;12.40;99.90
9971;DHT22;5026;51.494;11.974;2023-10-31T02:33:44;12.40;99.90
9971;DHT22;5026;51.494;11.974;2023-10-31T02:36:11;12.40;99.90
9971;DHT22;5026;51.494;11.974;2023-10-31T02:38:39;12.40;99.90
9971;DHT22;5026;51.494;11.974;2023-10-31T02:41:07;12.40;99.90
9971;DHT22;5026;51.494;11.974;2023-10-31T02:43:34;12.40;99.90
9971;DHT22;5026;51.494;11.974;2023-10-31T02:46:01;12.40;99.90
9971;DHT22;5026;51.494;11.974;2023-10-31T02:48:28;12.40;99.90
9971;DHT22;5026;51.494;11.974;2023-10-31T02:50:57;12.40;99.90
9971;DHT22;5026;51.494;11.974;2023-10-31T02:53:24;12.30;99.90
9971;DHT22;5026;51.494;11.974;2023-10-31T02:55:51;12.30;99.90
9971;DHT22;5026;51.494;11.974;2023-10-31T02:58:19;12.40;99.90
9971;DHT22;5026;51.494;11.974;2023-10-31T03:00:47;12.40;99.90
9971;DHT22;5026;51.494;11.974;2023-10-31T03:03:13;12.40;99.90
9971;DHT22;5026;51.494;11.974;2023-10-31T03:05:40;12.40;99.90
9971;DHT22;5026;51.494;11.974;2023-10-31T03:08:07;12.40;99.90
9971;DHT22;5026;51.494;11.974;2023-10-31T03:10:35;12.30;99.90
9971;DHT22;5026;51.494;11.974;2023-10-31T03:13:02;12.40;99.90
9971;DHT22;5026;51.494;11.974;2023-10-31T03:15:31;12.40;99.90
9971;DHT22;5026;51.494;11.974;2023-10-31T03:17:58;12.40;99.90
9971;DHT22;5026;51.494;11.974;2023-10-31T03:20:25;12.40;99.90
9971;DHT22;5026;51.494;11.974;2023-10-31T03:22:52;12.40;99.90
9971;DHT22;5026;51.494;11.974;2023-10-31T03:25:19;12.40;99.90
9971;DHT22;5026;51.494;11.974;2023-10-31T03:27:46;12.40;99.90
9971;DHT22;5026;51.494;11.974;2023-10-31T03:30:13;12.30;99.90
9971;DHT22;5026;51.494;11.974;2023-10-31T03:32:42;12.40;99.90
9971;DHT22;5026;51.494;11.974;2023-10-31T03:35:09;12.30;99.90
9971;DHT22;5026;51.494;11.974;2023-10-31T03:37:36;12.30;99.90
9971;DHT22;5026;51.494;11.974;2023-10-31T03:40:08;12.30;99.90
9971;DHT22;5026;51.494;11.974;2023-10-31T03:42:35;12.30;99.90
9971;DHT22;5026;51.494;11.974;2023-10-31T03:45:02;12.30;99.90
9971;DHT22;5026;51.494;11.974;2023-10-31T03:47:29;12.30;99.90
9971;DHT22;5026;51.494;11.974;2023-10-31T03:49:58;12.40;99.90
9971;DHT22;5026;51.494;11.974;2023-10-31T03:52:24;12.40;99.90
9971;DHT22;5026;51.494;11.974;2023-10-31T03:54:51;12.40;99.90
9971;DHT22;5026;51.494;11.974;2023-10-31T03:57:18;12.30;99.90
9971;DHT22;5026;51.494;11.974;2023-10-31T03:59:45;12.30;99.90
9971;DHT22;5026;51.494;11.974;2023-10-31T04:02:12;12.30;99.90
9971;DHT22;5026;51.494;11.974;2023-10-31T04:04:39;12.20;99.90
9971;DHT22;5026;51.494;11.974;2023-10-31T04:07:07;12.20;99.90
9971;DHT22;5026;51.494;11.974;2023-10-31T04:09:34;12.20;99.90
9971;DHT22;5026;51.494;11.974;2023-10-31T04:12:01;12.10;99.90
9971;DHT22;5026;51.494;11.974;2023-10-31T04:14:28;12.20;99.90
9971;DHT22;5026;51.494;11.974;2023-10-31T04:16:55;12.20;99.90
9971;DHT22;5026;51.494;11.974;2023-10-31T04:19:22;12.20;99.90
9971;DHT22;5026;51.494;11.974;2023-10-31T04:21:48;12.20;99.90
9971;DHT22;5026;51.494;11.974;2023-10-31T04:24:16;12.20;99.90
9971;DHT22;5026;51.494;11.974;2023-10-31T04:26:43;12.20;99.90
9971;DHT22;5026;51.494;11.974;2023-10-31T04:29:10;12.30;99.90
9971;DHT22;5026;51.494;11.974;2023-10-31T04:31:37;12.30;99.90
9971;DHT22;5026;51.494;11.974;2023-10-31T04:34:04;12.20;99.90
9971;DHT22;5026;51.494;11.974;2023-10-31T04:36:31;12.20;99.90
9971;DHT22;5026;51.494;11.974;2023-10-31T04:38:58;12.30;99.90
9971;DHT22;5026;51.494;11.974;2023-10-31T04:41:26;12.30;99.90
9971;DHT22;5026;51.494;11.974;2023-10-31T04:43:54;12.30;99.90
9971;DHT22;5026;51.494;11.974;2023-10-31T04:46:21;12.30;99.90
9971;DHT22;5026;51.494;11.974;2023-10-31T04:48:48;12.30;99.90
9971;DHT22;5026;51.494;11.974;2023-10-31T04:51:15;12.40;99.90
9971;DHT22;5026;51.494;11.974;2023-10-31T04:53:42;12.50;99.90
9971;DHT22;5026;51.494;11.974;2023-10-31T04:56:12;12.50;99.90
9971;DHT22;5026;51.494;11.974;2023-10-31T04:58:41;12.50;99.90
9971;DHT22;5026;51.494;11.974;2023-10-31T05:01:08;12.60;99.90
9971;DHT22;5026;51.494;11.974;2023-10-31T05:03:36;12.50;99.90
9971;DHT22;5026;51.494;11.974;2023-10-31T05:06:04;12.50;99.90
9971;DHT22;5026;51.494;11.974;2023-10-31T05:08:31;12.50;99.90
9971;DHT22;5026;51.494;11.974;2023-10-31T05:10:58;12.50;99.90
9971;DHT22;5026;51.494;11.974;2023-10-31T05:13:25;12.60;99.90
9971;DHT22;5026;51.494;11.974;2023-10-31T05:15:54;12.50;99.90
9971;DHT22;5026;51.494;11.974;2023-10-31T05:18:21;12.60;99.90
9971;DHT22;5026;51.494;11.974;2023-10-31T05:20:49;12.50;99.90
9971;DHT22;5026;51.494;11.974;2023-10-31T05:23:16;12.50;99.90
9971;DHT22;5026;51.494;11.974;2023-10-31T05:25:43;12.60;99.90
9971;DHT22;5026;51.494;11.974;2023-10-31T05:28:10;12.60;99.90
9971;DHT22;5026;51.494;11.974;2023-10-31T05:30:37;12.60;99.90
9971;DHT22;5026;51.494;11.974;2023-10-31T05:33:05;12.60;99.90
9971;DHT22;5026;51.494;11.974;2023-10-31T05:35:33;12.60;99.90
9971;DHT22;5026;51.494;11.974;2023-10-31T05:38:00;12.60;99.90
9971;DHT22;5026;51.494;11.974;2023-10-31T05:40:27;12.70;99.90
9971;DHT22;5026;51.494;11.974;2023-10-31T05:42:55;12.60;99.90
9971;DHT22;5026;51.494;11.974;2023-10-31T05:45:22;12.60;99.90
9971;DHT22;5026;51.494;11.974;2023-10-31T05:47:49;12.60;99.90
9971;DHT22;5026;51.494;11.974;2023-10-31T05:50:18;12.60;99.90
9971;DHT22;5026;51.494;11.974;2023-10-31T05:52:45;12.50;99.90
9971;DHT22;5026;51.494;11.974;2023-10-31T05:55:12;12.50;99.90
9971;DHT22;5026;51.494;11.974;2023-10-31T05:57:39;12.60;99.90
9971;DHT22;5026;51.494;11.974;2023-10-31T06:00:07;12.50;99.90
9971;DHT22;5026;51.494;11.974;2023-10-31T06:02:34;12.50;99.90
9971;DHT22;5026;51.494;11.974;2023-10-31T06:05:02;12.50;99.90
9971;DHT22;5026;51.494;11.974;2023-10-31T06:07:30;12.40;99.90
9971;DHT22;5026;51.494;11.974;2023-10-31T06:09:57;12.40;99.90
9971;DHT22;5026;51.494;11.974;2023-10-31T06:12:24;12.40;99.90
9971;DHT22;5026;51.494;11.974;2023-10-31T06:14:51;12.40;99.90
9971;DHT22;5026;51.494;11.974;2023-10-31T06:17:18;12.40;99.90
9971;DHT22;5026;51.494;11.974;2023-10-31T06:19:44;12.40;99.90
9971;DHT22;5026;51.494;11.974;2023-10-31T06:22:13;12.40;99.90
9971;DHT22;5026;51.494;11.974;2023-10-31T06:24:41;12.40;99.90
9971;DHT22;5026;51.494;11.974;2023-10-31T06:27:08;12.30;99.90
9971;DHT22;5026;51.494;11.974;2023-10-31T06:29:35;12.30;99.90
9971;DHT22;5026;51.494;11.974;2023-10-31T06:32:02;12.40;99.90
9971;DHT22;5026;51.494;11.974;2023-10-31T06:34:29;12.30;99.90
9971;DHT22;5026;51.494;11.974;2023-10-31T06:36:56;12.30;99.90
9971;DHT22;5026;51.494;11.974;2023-10-31T06:39:22;12.30;99.90
9971;DHT22;5026;51.494;11.974;2023-10-31T06:41:54;12.30;99.90
9971;DHT22;5026;51.494;11.974;2023-10-31T06:44:22;12.30;99.90
9971;DHT22;5026;51.494;11.974;2023-10-31T06:46:48;12.40;99.90
9971;DHT22;5026;51.494;11.974;2023-10-31T06:49:15;12.40;99.90
9971;DHT22;5026;51.494;11.974;2023-10-31T06:51:43;12.40;99.90
9971;DHT22;5026;51.494;11.974;2023-10-31T06:54:09;12.50;99.90
9971;DHT22;5026;51.494;11.974;2023-10-31T06:56:36;12.60;99.90
9971;DHT22;5026;51.494;11.974;2023-10-31T06:59:05;12.60;99.90
9971;DHT22;5026;51.494;11.974;2023-10-31T07:01:32;12.70;99.90
9971;DHT22;5026;51.494;11.974;2023-10-31T07:03:59;12.70;99.90
9971;DHT22;5026;51.494;11.974;2023-10-31T07:06:26;12.70;99.90
9971;DHT22;5026;51.494;11.974;2023-10-31T07:08:52;12.70;99.90
9971;DHT22;5026;51.494;11.974;2023-10-31T07:11:19;12.80;99.90
9971;DHT22;5026;51.494;11.974;2023-10-31T07:13:46;12.80;99.90
9971;DHT22;5026;51.494;11.974;2023-10-31T07:16:15;12.70;99.90
9971;DHT22;5026;51.494;11.974;2023-10-31T07:18:42;12.80;99.90
9971;DHT22;5026;51.494;11.974;2023-10-31T07:21:09;12.80;99.90
9971;DHT22;5026;51.494;11.974;2023-10-31T07:23:36;12.70;99.90
9971;DHT22;5026;51.494;11.974;2023-10-31T07:26:04;12.80;99.90
9971;DHT22;5026;51.494;11.974;2023-10-31T07:28:31;12.70;99.90
9971;DHT22;5026;51.494;11.974;2023-10-31T07:30:58;12.70;99.90
9971;DHT22;5026;51.494;11.974;2023-10-31T07:33:28;12.80;99.90
9971;DHT22;5026;51.494;11.974;2023-10-31T07:35:54;12.90;99.90
9971;DHT22;5026;51.494;11.974;2023-10-31T07:38:21;13.10;99.90
9971;DHT22;5026;51.494;11.974;2023-10-31T07:40:48;13.10;99.90
9971;DHT22;5026;51.494;11.974;2023-10-31T07:43:16;13.20;99.90
9971;DHT22;5026;51.494;11.974;2023-10-31T07:45:43;13.10;99.90
9971;DHT22;5026;51.494;11.974;2023-10-31T07:48:10;13.10;99.90
9971;DHT22;5026;51.494;11.974;2023-10-31T07:50:38;13.00;99.90
9971;DHT22;5026;51.494;11.974;2023-10-31T07:53:06;13.00;99.90
9971;DHT22;5026;51.494;11.974;2023-10-31T07:55:33;13.00;99.90
9971;DHT22;5026;51.494;11.974;2023-10-31T07:58:00;13.10;99.90
9971;DHT22;5026;51.494;11.974;2023-10-31T08:00:27;13.10;99.90
9971;DHT22;5026;51.494;11.974;2023-10-31T08:02:54;13.10;99.90
9971;DHT22;5026;51.494;11.974;2023-10-31T08:05:21;13.00;99.90
9971;DHT22;5026;51.494;11.974;2023-10-31T08:07:50;13.00;99.90
9971;DHT22;5026;51.494;11.974;2023-10-31T08:10:17;13.00;99.90
9971;DHT22;5026;51.494;11.974;2023-10-31T08:12:44;12.90;99.90
9971;DHT22;5026;51.494;11.974;2023-10-31T08:15:11;12.90;99.90
9971;DHT22;5026;51.494;11.974;2023-10-31T08:17:39;13.00;99.90
9971;DHT22;5026;51.494;11.974;2023-10-31T08:20:07;13.10;99.90
9971;DHT22;5026;51.494;11.974;2023-10-31T08:22:34;13.30;99.90
9971;DHT22;5026;51.494;11.974;2023-10-31T08:25:03;13.60;99.90
9971;DHT22;5026;51.494;11.974;2023-10-31T08:27:30;14.50;99.90
9971;DHT22;5026;51.494;11.974;2023-10-31T08:29:57;14.70;99.90
9971;DHT22;5026;51.494;11.974;2023-10-31T08:32:24;14.80;99.90
9971;DHT22;5026;51.494;11.974;2023-10-31T08:34:51;14.80;99.90
9971;DHT22;5026;51.494;11.974;2023-10-31T08:37:19;14.90;99.90
9971;DHT22;5026;51.494;11.974;2023-10-31T08:39:46;14.90;99.90
9971;DHT22;5026;51.494;11.974;2023-10-31T08:42:14;15.30;99.90
9971;DHT22;5026;51.494;11.974;2023-10-31T08:44:41;15.40;99.90
9971;DHT22;5026;51.494;11.974;2023-10-31T08:47:08;15.50;99.90
9971;DHT22;5026;51.494;11.974;2023-10-31T08:49:37;15.60;99.90
9971;DHT22;5026;51.494;11.974;2023-10-31T08:52:04;15.30;99.90
9971;DHT22;5026;51.494;11.974;2023-10-31T08:54:32;14.90;99.90
9971;DHT22;5026;51.494;11.974;2023-10-31T08:56:59;14.60;99.90
9971;DHT22;5026;51.494;11.974;2023-10-31T08:59:27;14.50;99.90
9971;DHT22;5026;51.494;11.974;2023-10-31T09:01:54;14.40;99.90
9971;DHT22;5026;51.494;11.974;2023-10-31T09:04:21;14.40;99.90
9971;DHT22;5026;51.494;11.974;2023-10-31T09:06:48;14.30;99.90
9971;DHT22;5026;51.494;11.974;2023-10-31T09:09:14;14.40;99.90
9971;DHT22;5026;51.494;11.974;2023-10-31T09:11:41;14.50;99.90
9971;DHT22;5026;51.494;11.974;2023-10-31T09:14:08;14.60;99.90
9971;DHT22;5026;51.494;11.974;2023-10-31T09:16:37;14.90;99.90
9971;DHT22;5026;51.494;11.974;2023-10-31T09:19:04;14.90;99.90
9971;DHT22;5026;51.494;11.974;2023-10-31T09:21:31;14.80;99.90
9971;DHT22;5026;51.494;11.974;2023-10-31T09:23:58;14.70;99.90
9971;DHT22;5026;51.494;11.974;2023-10-31T09:26:25;14.60;99.90
9971;DHT22;5026;51.494;11.974;2023-10-31T09:28:52;14.70;99.90
9971;DHT22;5026;51.494;11.974;2023-10-31T09:31:19;14.90;99.90
9971;DHT22;5026;51.494;11.974;2023-10-31T09:33:48;15.10;99.90
9971;DHT22;5026;51.494;11.974;2023-10-31T09:36:15;15.60;99.90
9971;DHT22;5026;51.494;11.974;2023-10-31T09:38:42;16.20;99.90
9971;DHT22;5026;51.494;11.974;2023-10-31T09:41:08;16.50;99.90
9971;DHT22;5026;51.494;11.974;2023-10-31T09:43:36;16.60;99.90
9971;DHT22;5026;51.494;11.974;2023-10-31T09:46:03;16.40;99.90
9971;DHT22;5026;51.494;11.974;2023-10-31T09:48:31;16.30;99.90
9971;DHT22;5026;51.494;11.974;2023-10-31T09:51:00;16.30;99.90
9971;DHT22;5026;51.494;11.974;2023-10-31T09:53:29;16.30;99.90
9971;DHT22;5026;51.494;11.974;2023-10-31T09:55:56;16.40;99.90
9971;DHT22;5026;51.494;11.974;2023-10-31T09:58:23;16.20;99.90
9971;DHT22;5026;51.494;11.974;2023-10-31T10:00:50;15.60;99.90
9971;DHT22;5026;51.494;11.974;2023-10-31T10:03:17;15.40;99.90
9971;DHT22;5026;51.494;11.974;2023-10-31T10:05:45;15.10;99.90
9971;DHT22;5026;51.494;11.974;2023-10-31T10:08:14;14.90;99.90
9971;DHT22;5026;51.494;11.974;2023-10-31T10:10:41;14.80;99.90
9971;DHT22;5026;51.494;11.974;2023-10-31T10:13:08;14.50;99.90
9971;DHT22;5026;51.494;11.974;2023-10-31T10:15:45;14.50;99.90
9971;DHT22;5026;51.494;11.974;2023-10-31T10:18:24;14.60;99.90
9971;DHT22;5026;51.494;11.974;2023-10-31T10:20:54;14.80;99.90
9971;DHT22;5026;51.494;11.974;2023-10-31T10:23:24;14.00;99.90
9971;DHT22;5026;51.494;11.974;2023-10-31T10:25:52;14.90;99.90
9971;DHT22;5026;51.494;11.974;2023-10-31T10:28:19;14.80;99.90
9971;DHT22;5026;51.494;11.974;2023-10-31T10:30:47;14.70;99.90
9971;DHT22;5026;51.494;11.974;2023-10-31T10:33:14;14.80;99.90
9971;DHT22;5026;51.494;11.974;2023-10-31T10:35:42;14.70;99.90
9971;DHT22;5026;51.494;11.974;2023-10-31T10:38:11;14.70;99.90
9971;DHT22;5026;51.494;11.974;2023-10-31T10:40:43;14.60;99.90
9971;DHT22;5026;51.494;11.974;2023-10-31T10:43:14;14.40;99.90
9971;DHT22;5026;51.494;11.974;2023-10-31T10:45:44;14.30;99.90
9971;DHT22;5026;51.494;11.974;2023-10-31T10:48:15;14.30;99.90
9971;DHT22;5026;51.494;11.974;2023-10-31T10:50:43;14.20;99.90
9971;DHT22;5026;51.494;11.974;2023-10-31T10:53:21;14.20;99.90
9971;DHT22;5026;51.494;11.974;2023-10-31T10:55:56;14.20;99.90
9971;DHT22;5026;51.494;11.974;2023-10-31T10:58:30;14.20;99.90
9971;DHT22;5026;51.494;11.974;2023-10-31T11:01:00;14.20;99.90
9971;DHT22;5026;51.494;11.974;2023-10-31T11:03:29;14.30;99.90
9971;DHT22;5026;51.494;11.974;2023-10-31T11:05:57;14.30;99.90
9971;DHT22;5026;51.494;11.974;2023-10-31T11:08:24;14.40;99.90
9971;DHT22;5026;51.494;11.974;2023-10-31T11:10:55;14.30;99.90
9971;DHT22;5026;51.494;11.974;2023-10-31T11:13:23;14.10;99.90
9971;DHT22;5026;51.494;11.974;2023-10-31T11:15:55;13.90;99.90
9971;DHT22;5026;51.494;11.974;2023-10-31T11:18:24;13.80;99.90
9971;DHT22;5026;51.494;11.974;2023-10-31T11:20:52;13.60;99.90
9971;DHT22;5026;51.494;11.974;2023-10-31T11:23:19;13.40;99.90
9971;DHT22;5026;51.494;11.974;2023-10-31T11:25:50;13.30;99.90
9971;DHT22;5026;51.494;11.974;2023-10-31T11:28:20;13.20;99.90
9971;DHT22;5026;51.494;11.974;2023-10-31T11:30:49;13.40;99.90
9971;DHT22;5026;51.494;11.974;2023-10-31T11:33:19;13.50;99.90
9971;DHT22;5026;51.494;11.974;2023-10-31T11:35:50;13.60;99.90
9971;DHT22;5026;51.494;11.974;2023-10-31T11:38:17;13.50;99.90
9971;DHT22;5026;51.494;11.974;2023-10-31T11:41:04;13.40;99.90
9971;DHT22;5026;51.494;11.974;2023-10-31T11:43:54;13.40;99.90
9971;DHT22;5026;51.494;11.974;2023-10-31T11:46:25;13.60;99.90
9971;DHT22;5026;51.494;11.974;2023-10-31T11:48:52;13.90;99.90
9971;DHT22;5026;51.494;11.974;2023-10-31T11:51:20;14.20;99.90
9971;DHT22;5026;51.494;11.974;2023-10-31T11:53:48;14.40;99.90
9971;DHT22;5026;51.494;11.974;2023-10-31T11:56:16;14.50;99.90
9971;DHT22;5026;51.494;11.974;2023-10-31T11:58:43;14.60;99.90
9971;DHT22;5026;51.494;11.974;2023-10-31T12:01:15;14.60;99.90
9971;DHT22;5026;51.494;11.974;2023-10-31T12:03:43;14.60;99.90
9971;DHT22;5026;51.494;11.974;2023-10-31T12:06:13;14.60;99.90
9971;DHT22;5026;51.494;11.974;2023-10-31T12:08:41;14.60;99.90
9971;DHT22;5026;51.494;11.974;2023-10-31T12:11:09;14.60;99.90
9971;DHT22;5026;51.494;11.974;2023-10-31T12:13:38;14.50;99.90
9971;DHT22;5026;51.494;11.974;2023-10-31T12:16:06;14.40;99.90
9971;DHT22;5026;51.494;11.974;2023-10-31T12:18:35;14.30;99.90
9971;DHT22;5026;51.494;11.974;2023-10-31T12:21:03;14.20;99.90
9971;DHT22;5026;51.494;11.974;2023-10-31T12:23:32;14.10;99.90
9971;DHT22;5026;51.494;11.974;2023-10-31T12:25:59;14.00;99.90
9971;DHT22;5026;51.494;11.974;2023-10-31T12:28:26;14.00;99.90
9971;DHT22;5026;51.494;11.974;2023-10-31T12:30:54;14.00;99.90
9971;DHT22;5026;51.494;11.974;2023-10-31T12:33:25;14.00;99.90
9971;DHT22;5026;51.494;11.974;2023-10-31T12:35:56;14.10;99.90
9971;DHT22;5026;51.494;11.974;2023-10-31T12:38:24;13.90;99.90
9971;DHT22;5026;51.494;11.974;2023-10-31T12:40:52;13.90;99.90
9971;DHT22;5026;51.494;11.974;2023-10-31T12:43:20;13.70;99.90
9971;DHT22;5026;51.494;11.974;2023-10-31T12:45:47;13.60;99.90
9971;DHT22;5026;51.494;11.974;2023-10-31T12:48:14;13.60;99.90
9971;DHT22;5026;51.494;11.974;2023-10-31T12:50:41;13.50;99.90
9971;DHT22;5026;51.494;11.974;2023-10-31T12:53:09;13.60;99.90
9971;DHT22;5026;51.494;11.974;2023-10-31T12:55:41;13.70;99.90
9971;DHT22;5026;51.494;11.974;2023-10-31T12:58:20;13.70;99.90
9971;DHT22;5026;51.494;11.974;2023-10-31T13:00:49;13.70;99.90
9971;DHT22;5026;51.494;11.974;2023-10-31T13:03:17;13.80;99.90
9971;DHT22;5026;51.494;11.974;2023-10-31T13:05:45;13.80;99.90
9971;DHT22;5026;51.494;11.974;2023-10-31T13:08:15;13.90;99.90
9971;DHT22;5026;51.494;11.974;2023-10-31T13:10:43;13.80;99.90
9971;DHT22;5026;51.494;11.974;2023-10-31T13:13:10;13.80;99.90
9971;DHT22;5026;51.494;11.974;2023-10-31T13:15:37;13.70;99.90
9971;DHT22;5026;51.494;11.974;2023-10-31T13:18:04;13.80;99.90
9971;DHT22;5026;51.494;11.974;2023-10-31T13:20:31;13.70;99.90
9971;DHT22;5026;51.494;11.974;2023-10-31T13:22:59;13.70;99.90
9971;DHT22;5026;51.494;11.974;2023-10-31T13:25:30;13.50;99.90
9971;DHT22;5026;51.494;11.974;2023-10-31T13:27:57;13.50;99.90
9971;DHT22;5026;51.494;11.974;2023-10-31T13:30:24;13.50;99.90
9971;DHT22;5026;51.494;11.974;2023-10-31T13:32:51;13.50;99.90
9971;DHT22;5026;51.494;11.974;2023-10-31T13:35:18;13.50;99.90
9971;DHT22;5026;51.494;11.974;2023-10-31T13:37:45;13.50;99.90
9971;DHT22;5026;51.494;11.974;2023-10-31T13:40:12;13.40;99.90
9971;DHT22;5026;51.494;11.974;2023-10-31T13:42:41;13.30;99.90
9971;DHT22;5026;51.494;11.974;2023-10-31T13:45:08;13.20;99.90
9971;DHT22;5026;51.494;11.974;2023-10-31T13:47:35;13.10;99.90
9971;DHT22;5026;51.494;11.974;2023-10-31T13:50:04;13.10;99.90
9971;DHT22;5026;51.494;11.974;2023-10-31T13:52:31;13.20;99.90
9971;DHT22;5026;51.494;11.974;2023-10-31T13:54:58;13.20;99.90
9971;DHT22;5026;51.494;11.974;2023-10-31T13:57:25;13.30;99.90
9971;DHT22;5026;51.494;11.974;2023-10-31T13:59:53;13.30;99.90
9971;DHT22;5026;51.494;11.974;2023-10-31T14:02:20;13.30;99.90
9971;DHT22;5026;51.494;11.974;2023-10-31T14:04:47;13.20;99.90
9971;DHT22;5026;51.494;11.974;2023-10-31T14:07:21;13.30;99.90
9971;DHT22;5026;51.494;11.974;2023-10-31T14:09:48;13.30;99.90
9971;DHT22;5026;51.494;11.974;2023-10-31T14:12:15;13.30;99.90
9971;DHT22;5026;51.494;11.974;2023-10-31T14:14:42;13.40;99.90
9971;DHT22;5026;51.494;11.974;2023-10-31T14:17:11;13.50;99.90
9971;DHT22;5026;51.494;11.974;2023-10-31T14:19:39;13.60;99.90
9971;DHT22;5026;51.494;11.974;2023-10-31T14:22:05;13.60;99.90
9971;DHT22;5026;51.494;11.974;2023-10-31T14:24:33;13.60;99.90
9971;DHT22;5026;51.494;11.974;2023-10-31T14:27:01;13.60;99.90
9971;DHT22;5026;51.494;11.974;2023-10-31T14:29:28;13.60;99.90
9971;DHT22;5026;51.494;11.974;2023-10-31T14:31:55;13.60;99.90
9971;DHT22;5026;51.494;11.974;2023-10-31T14:34:24;13.60;99.90
9971;DHT22;5026;51.494;11.974;2023-10-31T14:36:51;13.50;99.90
9971;DHT22;5026;51.494;11.974;2023-10-31T14:39:19;13.50;99.90
9971;DHT22;5026;51.494;11.974;2023-10-31T14:41:46;13.50;99.90
9971;DHT22;5026;51.494;11.974;2023-10-31T14:44:13;13.40;99.90
9971;DHT22;5026;51.494;11.974;2023-10-31T14:46:40;13.40;99.90
9971;DHT22;5026;51.494;11.974;2023-10-31T14:49:07;12.80;99.90
9971;DHT22;5026;51.494;11.974;2023-10-31T14:51:36;13.30;99.90
9971;DHT22;5026;51.494;11.974;2023-10-31T14:54:04;13.30;99.90
9971;DHT22;5026;51.494;11.974;2023-10-31T14:56:31;13.20;99.90
9971;DHT22;5026;51.494;11.974;2023-10-31T14:59:00;13.30;99.90
9971;DHT22;5026;51.494;11.974;2023-10-31T15:01:28;13.20;99.90
9971;DHT22;5026;51.494;11.974;2023-10-31T15:03:55;13.20;99.90
9971;DHT22;5026;51.494;11.974;2023-10-31T15:06:22;13.20;99.90
9971;DHT22;5026;51.494;11.974;2023-10-31T15:08:50;13.20;99.90
9971;DHT22;5026;51.494;11.974;2023-10-31T15:11:17;13.20;99.90
9971;DHT22;5026;51.494;11.974;2023-10-31T15:13:44;13.10;99.90
9971;DHT22;5026;51.494;11.974;2023-10-31T15:16:11;13.20;99.90
9971;DHT22;5026;51.494;11.974;2023-10-31T15:18:38;13.10;99.90
9971;DHT22;5026;51.494;11.974;2023-10-31T15:21:05;13.10;99.90
9971;DHT22;5026;51.494;11.974;2023-10-31T15:23:32;13.10;99.90
9971;DHT22;5026;51.494;11.974;2023-10-31T15:26:03;13.00;99.90
9971;DHT22;5026;51.494;11.974;2023-10-31T15:28:30;13.00;99.90
9971;DHT22;5026;51.494;11.974;2023-10-31T15:30:57;13.00;99.90
9971;DHT22;5026;51.494;11.974;2023-10-31T15:33:24;13.00;99.90
9971;DHT22;5026;51.494;11.974;2023-10-31T15:35:51;13.00;99.90
9971;DHT22;5026;51.494;11.974;2023-10-31T15:38:18;13.00;99.90
9971;DHT22;5026;51.494;11.974;2023-10-31T15:40:45;13.00;99.90
9971;DHT22;5026;51.494;11.974;2023-10-31T15:43:14;13.00;99.90
9971;DHT22;5026;51.494;11.974;2023-10-31T15:45:41;13.10;99.90
9971;DHT22;5026;51.494;11.974;2023-10-31T15:48:08;13.00;99.90